sensor_id;sensor_type;location;lat;lon;timestamp;pressure;altitude;pressure_sealevel;temperature;humidity
34370;BME280;20635;55.812;37.560;2023-02-28T00:01:24;99855.25;;;23.40;23.92
34370;BME280;20635;55.812;37.560;2023-02-28T00:03:50;99845.22;;;23.39;23.74
34370;BME280;20635;55.812;37.560;2023-02-28T00:06:16;99844.38;;;23.39;23.52
34370;BME280;20635;55.812;37.560;2023-02-28T00:08:42;99846.34;;;23.38;23.46
34370;BME280;20635;55.812;37.560;2023-02-28T00:11:11;99835.16;;;23.38;23.73
34370;BME280;20635;55.812;37.560;2023-02-28T00:13:40;99825.66;;;23.39;23.43
34370;BME280;20635;55.812;37.560;2023-02-28T00:16:09;99831.25;;;23.39;23.63
34370;BME280;20635;55.812;37.560;2023-02-28T00:18:36;99823.97;;;23.38;23.60
34370;BME280;20635;55.812;37.560;2023-02-28T00:21:02;99831.25;;;23.39;23.60
34370;BME280;20635;55.812;37.560;2023-02-28T00:23:28;99829.56;;;23.38;23.64
34370;BME280;20635;55.812;37.560;2023-02-28T00:25:55;99827.59;;;23.39;23.70
34370;BME280;20635;55.812;37.560;2023-02-28T00:28:21;99827.59;;;23.39;24.10
34370;BME280;20635;55.812;37.560;2023-02-28T00:30:47;99824.78;;;23.39;24.10
34370;BME280;20635;55.812;37.560;2023-02-28T00:33:13;99817.56;;;23.38;23.76
34370;BME280;20635;55.812;37.560;2023-02-28T00:35:39;99811.66;;;23.39;23.81
34370;BME280;20635;55.812;37.560;2023-02-28T00:38:05;99811.13;;;23.37;23.89
34370;BME280;20635;55.812;37.560;2023-02-28T00:40:31;99816.72;;;23.37;23.79
34370;BME280;20635;55.812;37.560;2023-02-28T00:42:57;99815.91;;;23.37;23.93
34370;BME280;20635;55.812;37.560;2023-02-28T00:45:23;99818.38;;;23.38;23.96
34370;BME280;20635;55.812;37.560;2023-02-28T00:47:49;99811.13;;;23.37;24.06
34370;BME280;20635;55.812;37.560;2023-02-28T00:50:20;99810.31;;;23.37;23.68
34370;BME280;20635;55.812;37.560;2023-02-28T00:52:47;99812.28;;;23.36;23.96
34370;BME280;20635;55.812;37.560;2023-02-28T00:55:14;99800.28;;;23.36;24.04
34370;BME280;20635;55.812;37.560;2023-02-28T00:57:40;99797.47;;;23.36;23.84
34370;BME280;20635;55.812;37.560;2023-02-28T01:00:06;99787.13;;;23.36;23.98
34370;BME280;20635;55.812;37.560;2023-02-28T01:02:33;99784.31;;;23.36;24.06
34370;BME280;20635;55.812;37.560;2023-02-28T01:04:59;99763.09;;;23.35;24.03
34370;BME280;20635;55.812;37.560;2023-02-28T01:07:25;99771.50;;;23.35;23.85
34370;BME280;20635;55.812;37.560;2023-02-28T01:09:51;99765.91;;;23.35;24.01
34370;BME280;20635;55.812;37.560;2023-02-28T01:12:17;99756.97;;;23.33;23.66
34370;BME280;20635;55.812;37.560;2023-02-28T01:14:42;99749.41;;;23.34;23.73
34370;BME280;20635;55.812;37.560;2023-02-28T01:17:09;99755.00;;;23.34;23.95
34370;BME280;20635;55.812;37.560;2023-02-28T01:19:35;99737.41;;;23.33;23.49
34370;BME280;20635;55.812;37.560;2023-02-28T01:22:04;99727.03;;;23.34;23.68
34370;BME280;20635;55.812;37.560;2023-02-28T01:24:30;99727.03;;;23.34;23.59
34370;BME280;20635;55.812;37.560;2023-02-28T01:26:56;99725.41;;;23.33;23.60
34370;BME280;20635;55.812;37.560;2023-02-28T01:29:22;99723.44;;;23.33;23.66
34370;BME280;20635;55.812;37.560;2023-02-28T01:31:48;99718.97;;;23.32;23.79
34370;BME280;20635;55.812;37.560;2023-02-28T01:34:14;99702.22;;;23.32;23.85
34370;BME280;20635;55.812;37.560;2023-02-28T01:36:40;99707.81;;;23.32;23.68
34370;BME280;20635;55.812;37.560;2023-02-28T01:39:06;99701.38;;;23.32;23.85
34370;BME280;20635;55.812;37.560;2023-02-28T01:41:33;99704.19;;;23.32;23.86
34370;BME280;20635;55.812;37.560;2023-02-28T01:44:07;99702.22;;;23.32;24.29
34370;BME280;20635;55.812;37.560;2023-02-28T01:46:35;99691.84;;;23.33;24.22
34370;BME280;20635;55.812;37.560;2023-02-28T01:49:11;99687.91;;;23.34;23.81
34370;BME280;20635;55.812;37.560;2023-02-28T01:54:15;99684.59;;;23.32;23.82
34370;BME280;20635;55.812;37.560;2023-02-28T01:56:45;99671.44;;;23.32;23.67
34370;BME280;20635;55.812;37.560;2023-02-28T01:59:17;99667.00;;;23.31;23.63
34370;BME280;20635;55.812;37.560;2023-02-28T02:01:47;99666.19;;;23.31;23.53
34370;BME280;20635;55.812;37.560;2023-02-28T02:04:13;99662.56;;;23.30;23.44
34370;BME280;20635;55.812;37.560;2023-02-28T02:06:44;99664.22;;;23.31;23.66
34370;BME280;20635;55.812;37.560;2023-02-28T02:09:12;99659.78;;;23.30;23.65
34370;BME280;20635;55.812;37.560;2023-02-28T02:11:40;99649.72;;;23.29;23.60
34370;BME280;20635;55.812;37.560;2023-02-28T02:16:56;99642.66;;;23.32;23.49
34370;BME280;20635;55.812;37.560;2023-02-28T02:28:38;99641.50;;;23.33;23.33
34370;BME280;20635;55.812;37.560;2023-02-28T02:34:18;99628.16;;;23.29;23.19
34370;BME280;20635;55.812;37.560;2023-02-28T02:36:52;99626.53;;;23.28;23.15
34370;BME280;20635;55.812;37.560;2023-02-28T02:39:36;99628.16;;;23.29;23.57
34370;BME280;20635;55.812;37.560;2023-02-28T02:42:15;99617.31;;;23.28;23.31
34370;BME280;20635;55.812;37.560;2023-02-28T02:45:01;99599.72;;;23.27;23.23
34370;BME280;20635;55.812;37.560;2023-02-28T02:47:31;99603.66;;;23.26;23.34
34370;BME280;20635;55.812;37.560;2023-02-28T02:50:03;99597.25;;;23.26;23.17
34370;BME280;20635;55.812;37.560;2023-02-28T02:52:43;99602.50;;;23.27;23.01
34370;BME280;20635;55.812;37.560;2023-02-28T02:55:13;99591.13;;;23.24;23.29
34370;BME280;20635;55.812;37.560;2023-02-28T02:57:46;99589.97;;;23.25;23.06
34370;BME280;20635;55.812;37.560;2023-02-28T03:00:16;99581.09;;;23.23;23.30
34370;BME280;20635;55.812;37.560;2023-02-28T03:02:46;99580.28;;;23.22;23.01
34370;BME280;20635;55.812;37.560;2023-02-28T03:05:25;99578.81;;;23.25;23.19
34370;BME280;20635;55.812;37.560;2023-02-28T03:07:51;99566.31;;;23.22;22.84
34370;BME280;20635;55.812;37.560;2023-02-28T03:10:37;99562.03;;;23.25;23.02
34370;BME280;20635;55.812;37.560;2023-02-28T03:24:30;99538.16;;;23.19;22.79
34370;BME280;20635;55.812;37.560;2023-02-28T03:27:09;99526.66;;;23.20;22.98
34370;BME280;20635;55.812;37.560;2023-02-28T03:29:46;99521.38;;;23.19;22.88
34370;BME280;20635;55.812;37.560;2023-02-28T03:32:20;99515.31;;;23.17;22.77
34370;BME280;20635;55.812;37.560;2023-02-28T03:35:14;99521.38;;;23.19;22.98
34370;BME280;20635;55.812;37.560;2023-02-28T03:37:50;99527.59;;;23.16;22.79
34370;BME280;20635;55.812;37.560;2023-02-28T03:40:21;99518.41;;;23.15;22.60
34370;BME280;20635;55.812;37.560;2023-02-28T03:42:51;99531.56;;;23.15;22.91
34370;BME280;20635;55.812;37.560;2023-02-28T03:45:23;99513.16;;;23.14;22.84
34370;BME280;20635;55.812;37.560;2023-02-28T03:47:52;99507.56;;;23.14;22.86
34370;BME280;20635;55.812;37.560;2023-02-28T03:50:20;99494.72;;;23.13;22.68
34370;BME280;20635;55.812;37.560;2023-02-28T03:52:54;99496.72;;;23.12;22.56
34370;BME280;20635;55.812;37.560;2023-02-28T03:55:21;99496.19;;;23.10;22.51
34370;BME280;20635;55.812;37.560;2023-02-28T04:00:49;99467.91;;;23.12;22.48
34370;BME280;20635;55.812;37.560;2023-02-28T04:03:18;99471.03;;;23.10;22.33
34370;BME280;20635;55.812;37.560;2023-02-28T04:05:51;99466.25;;;23.11;22.47
34370;BME280;20635;55.812;37.560;2023-02-28T04:08:17;99456.56;;;23.08;22.53
34370;BME280;20635;55.812;37.560;2023-02-28T04:10:45;99469.41;;;23.09;22.44
34370;BME280;20635;55.812;37.560;2023-02-28T04:13:13;99456.56;;;23.08;22.51
34370;BME280;20635;55.812;37.560;2023-02-28T04:15:39;99458.22;;;23.09;22.41
34370;BME280;20635;55.812;37.560;2023-02-28T04:18:05;99464.13;;;23.08;22.70
34370;BME280;20635;55.812;37.560;2023-02-28T04:20:31;99461.34;;;23.08;22.65
34370;BME280;20635;55.812;37.560;2023-02-28T04:22:57;99451.81;;;23.09;22.52
34370;BME280;20635;55.812;37.560;2023-02-28T04:25:23;99441.78;;;23.08;22.64
34370;BME280;20635;55.812;37.560;2023-02-28T04:27:49;99442.91;;;23.07;22.44
34370;BME280;20635;55.812;37.560;2023-02-28T04:30:15;99438.13;;;23.07;22.63
34370;BME280;20635;55.812;37.560;2023-02-28T04:32:41;99434.22;;;23.08;22.59
34370;BME280;20635;55.812;37.560;2023-02-28T04:35:07;99433.38;;;23.08;22.74
34370;BME280;20635;55.812;37.560;2023-02-28T04:37:33;99438.97;;;23.08;22.53
34370;BME280;20635;55.812;37.560;2023-02-28T04:40:01;99418.25;;;23.09;22.20
34370;BME280;20635;55.812;37.560;2023-02-28T04:42:26;99422.22;;;23.08;22.38
34370;BME280;20635;55.812;37.560;2023-02-28T04:44:52;99399.84;;;23.08;22.57
34370;BME280;20635;55.812;37.560;2023-02-28T04:47:18;99397.38;;;23.06;22.55
34370;BME280;20635;55.812;37.560;2023-02-28T04:49:44;99398.19;;;23.07;22.71
34370;BME280;20635;55.812;37.560;2023-02-28T04:52:10;99400.97;;;23.07;22.55
34370;BME280;20635;55.812;37.560;2023-02-28T04:54:36;99397.38;;;23.06;23.05
34370;BME280;20635;55.812;37.560;2023-02-28T04:57:04;99392.59;;;23.07;22.53
34370;BME280;20635;55.812;37.560;2023-02-28T04:59:30;99384.22;;;23.07;22.60
34370;BME280;20635;55.812;37.560;2023-02-28T05:01:56;99363.00;;;23.06;22.72
34370;BME280;20635;55.812;37.560;2023-02-28T05:04:22;99366.63;;;23.06;22.72
34370;BME280;20635;55.812;37.560;2023-02-28T05:06:47;99363.53;;;23.08;22.65
34370;BME280;20635;55.812;37.560;2023-02-28T05:09:13;99359.06;;;23.07;22.53
34370;BME280;20635;55.812;37.560;2023-02-28T05:11:40;99364.66;;;23.07;22.72
34370;BME280;20635;55.812;37.560;2023-02-28T05:14:11;99359.88;;;23.07;22.78
34370;BME280;20635;55.812;37.560;2023-02-28T05:16:38;99348.69;;;23.07;22.72
34370;BME280;20635;55.812;37.560;2023-02-28T05:19:04;99353.47;;;23.07;22.70
34370;BME280;20635;55.812;37.560;2023-02-28T05:23:57;99325.03;;;23.04;22.53
34370;BME280;20635;55.812;37.560;2023-02-28T05:26:24;99327.00;;;23.04;22.25
34370;BME280;20635;55.812;37.560;2023-02-28T05:28:50;99313.84;;;23.04;22.66
34370;BME280;20635;55.812;37.560;2023-02-28T05:31:17;99316.66;;;23.04;22.47
34370;BME280;20635;55.812;37.560;2023-02-28T05:33:43;99315.81;;;23.04;22.13
34370;BME280;20635;55.812;37.560;2023-02-28T05:36:09;99313.84;;;23.04;22.20
34370;BME280;20635;55.812;37.560;2023-02-28T05:38:35;99296.25;;;23.04;22.29
34370;BME280;20635;55.812;37.560;2023-02-28T05:41:05;99296.25;;;23.04;22.07
34370;BME280;20635;55.812;37.560;2023-02-28T05:43:32;99283.44;;;23.03;22.21
34370;BME280;20635;55.812;37.560;2023-02-28T05:45:58;99280.66;;;23.03;22.39
34370;BME280;20635;55.812;37.560;2023-02-28T05:48:23;99278.97;;;23.02;22.34
34370;BME280;20635;55.812;37.560;2023-02-28T05:50:51;99277.34;;;23.01;22.43
34370;BME280;20635;55.812;37.560;2023-02-28T05:53:17;99264.19;;;23.01;22.04
34370;BME280;20635;55.812;37.560;2023-02-28T05:55:43;99262.56;;;23.00;22.19
34370;BME280;20635;55.812;37.560;2023-02-28T05:58:08;99262.22;;;23.02;22.24
34370;BME280;20635;55.812;37.560;2023-02-28T06:00:34;99255.00;;;23.01;22.37
34370;BME280;20635;55.812;37.560;2023-02-28T06:03:00;99243.00;;;23.00;22.20
34370;BME280;20635;55.812;37.560;2023-02-28T06:05:27;99232.97;;;22.99;22.05
34370;BME280;20635;55.812;37.560;2023-02-28T06:07:53;99231.00;;;23.00;21.99
34370;BME280;20635;55.812;37.560;2023-02-28T06:10:19;99209.47;;;23.00;22.28
34370;BME280;20635;55.812;37.560;2023-02-28T06:12:45;99232.28;;;23.02;22.08
34370;BME280;20635;55.812;37.560;2023-02-28T06:15:15;99232.28;;;23.02;22.38
34370;BME280;20635;55.812;37.560;2023-02-28T06:17:43;99230.66;;;23.01;21.94
34370;BME280;20635;55.812;37.560;2023-02-28T06:20:11;99234.28;;;23.02;22.20
34370;BME280;20635;55.812;37.560;2023-02-28T06:22:39;99204.69;;;23.01;22.21
34370;BME280;20635;55.812;37.560;2023-02-28T06:25:06;99195.16;;;23.02;22.17
34370;BME280;20635;55.812;37.560;2023-02-28T06:27:33;99191.53;;;23.01;22.07
34370;BME280;20635;55.812;37.560;2023-02-28T06:29:59;99199.91;;;23.01;22.13
34370;BME280;20635;55.812;37.560;2023-02-28T06:32:25;99196.31;;;23.01;21.97
34370;BME280;20635;55.812;37.560;2023-02-28T06:34:51;99194.34;;;23.01;22.21
34370;BME280;20635;55.812;37.560;2023-02-28T06:37:17;99193.50;;;23.01;22.14
34370;BME280;20635;55.812;37.560;2023-02-28T06:39:44;99186.75;;;23.02;22.28
34370;BME280;20635;55.812;37.560;2023-02-28T06:42:10;99162.78;;;23.01;22.30
34370;BME280;20635;55.812;37.560;2023-02-28T06:44:36;99169.19;;;23.01;22.11
34370;BME280;20635;55.812;37.560;2023-02-28T06:47:03;99146.81;;;23.01;22.14
34370;BME280;20635;55.812;37.560;2023-02-28T06:49:31;99146.50;;;23.03;22.21
34370;BME280;20635;55.812;37.560;2023-02-28T06:51:57;99135.00;;;23.04;22.43
34370;BME280;20635;55.812;37.560;2023-02-28T06:54:23;99142.72;;;23.08;22.39
34370;BME280;20635;55.812;37.560;2023-02-28T06:56:49;99121.66;;;23.10;22.14
34370;BME280;20635;55.812;37.560;2023-02-28T06:59:15;99126.25;;;23.15;22.34
34370;BME280;20635;55.812;37.560;2023-02-28T07:01:41;99111.63;;;23.18;22.29
34370;BME280;20635;55.812;37.560;2023-02-28T07:04:08;99103.06;;;23.23;22.61
34370;BME280;20635;55.812;37.560;2023-02-28T07:06:34;99089.56;;;23.25;22.63
34370;BME280;20635;55.812;37.560;2023-02-28T07:09:00;99093.84;;;23.31;23.05
34370;BME280;20635;55.812;37.560;2023-02-28T07:11:27;99094.84;;;23.35;23.13
34370;BME280;20635;55.812;37.560;2023-02-28T07:13:56;99089.88;;;23.41;23.26
34370;BME280;20635;55.812;37.560;2023-02-28T07:16:23;99086.41;;;23.44;23.66
34370;BME280;20635;55.812;37.560;2023-02-28T07:18:52;99078.16;;;23.47;24.02
34370;BME280;20635;55.812;37.560;2023-02-28T07:21:18;99075.53;;;23.51;24.36
34370;BME280;20635;55.812;37.560;2023-02-28T07:23:44;99063.69;;;23.54;24.39
34370;BME280;20635;55.812;37.560;2023-02-28T07:26:15;99073.84;;;23.59;24.44
34370;BME280;20635;55.812;37.560;2023-02-28T07:28:44;99069.25;;;23.63;24.86
34370;BME280;20635;55.812;37.560;2023-02-28T07:31:11;99073.66;;;23.64;24.79
34370;BME280;20635;55.812;37.560;2023-02-28T07:33:37;99065.47;;;23.67;24.54
34370;BME280;20635;55.812;37.560;2023-02-28T07:36:09;99051.59;;;23.71;24.56
34370;BME280;20635;55.812;37.560;2023-02-28T07:38:39;99052.09;;;23.73;24.52
34370;BME280;20635;55.812;37.560;2023-02-28T07:41:05;99067.41;;;23.75;24.22
34370;BME280;20635;55.812;37.560;2023-02-28T07:43:31;99065.91;;;23.78;23.85
34370;BME280;20635;55.812;37.560;2023-02-28T07:46:09;99056.16;;;23.84;23.72
34370;BME280;20635;55.812;37.560;2023-02-28T07:48:36;99051.41;;;23.85;23.95
34370;BME280;20635;55.812;37.560;2023-02-28T07:51:02;99050.22;;;23.86;23.62
34370;BME280;20635;55.812;37.560;2023-02-28T07:53:29;99057.94;;;23.89;23.56
34370;BME280;20635;55.812;37.560;2023-02-28T07:55:56;99041.63;;;23.91;23.68
34370;BME280;20635;55.812;37.560;2023-02-28T07:58:23;99046.56;;;23.94;23.65
34370;BME280;20635;55.812;37.560;2023-02-28T08:00:49;99041.78;;;23.94;23.51
34370;BME280;20635;55.812;37.560;2023-02-28T08:03:19;99043.88;;;23.97;23.27
34370;BME280;20635;55.812;37.560;2023-02-28T08:05:46;99026.78;;;23.99;23.40
34370;BME280;20635;55.812;37.560;2023-02-28T08:08:13;99022.81;;;24.00;23.53
34370;BME280;20635;55.812;37.560;2023-02-28T08:10:39;99006.84;;;24.00;23.38
34370;BME280;20635;55.812;37.560;2023-02-28T08:13:06;98998.91;;;24.02;23.69
34370;BME280;20635;55.812;37.560;2023-02-28T08:15:32;98999.41;;;24.04;23.42
34370;BME280;20635;55.812;37.560;2023-02-28T08:17:58;98995.78;;;24.04;23.53
34370;BME280;20635;55.812;37.560;2023-02-28T08:20:24;98989.84;;;24.05;23.51
34370;BME280;20635;55.812;37.560;2023-02-28T08:22:50;98972.69;;;24.07;23.33
34370;BME280;20635;55.812;37.560;2023-02-28T08:25:17;98974.00;;;24.10;23.34
34370;BME280;20635;55.812;37.560;2023-02-28T08:27:43;98971.22;;;24.10;23.62
34370;BME280;20635;55.812;37.560;2023-02-28T08:30:13;98980.06;;;24.12;23.44
34370;BME280;20635;55.812;37.560;2023-02-28T08:32:40;98992.59;;;24.14;23.59
34370;BME280;20635;55.812;37.560;2023-02-28T08:35:06;99026.19;;;24.14;23.34
34370;BME280;20635;55.812;37.560;2023-02-28T08:37:34;99035.03;;;24.16;23.70
34370;BME280;20635;55.812;37.560;2023-02-28T08:40:03;99029.13;;;24.18;23.51
34370;BME280;20635;55.812;37.560;2023-02-28T08:42:29;99024.81;;;24.20;23.85
34370;BME280;20635;55.812;37.560;2023-02-28T08:44:55;99031.72;;;24.23;23.66
34370;BME280;20635;55.812;37.560;2023-02-28T08:47:22;99024.94;;;24.24;23.59
34370;BME280;20635;55.812;37.560;2023-02-28T08:49:47;99022.66;;;24.26;23.42
34370;BME280;20635;55.812;37.560;2023-02-28T08:52:13;99007.47;;;24.27;23.42
34370;BME280;20635;55.812;37.560;2023-02-28T08:54:39;98999.91;;;24.27;23.53
34370;BME280;20635;55.812;37.560;2023-02-28T08:57:06;98999.91;;;24.27;23.70
34370;BME280;20635;55.812;37.560;2023-02-28T08:59:34;98996.41;;;24.30;23.61
34370;BME280;20635;55.812;37.560;2023-02-28T09:02:00;98986.03;;;24.31;23.76
34370;BME280;20635;55.812;37.560;2023-02-28T09:04:26;98974.13;;;24.34;23.70
34370;BME280;20635;55.812;37.560;2023-02-28T09:06:52;98969.38;;;24.35;23.93
34370;BME280;20635;55.812;37.560;2023-02-28T09:09:18;98963.44;;;24.36;23.87
34370;BME280;20635;55.812;37.560;2023-02-28T09:11:44;98957.50;;;24.38;23.73
34370;BME280;20635;55.812;37.560;2023-02-28T09:14:10;98962.78;;;24.39;23.73
34370;BME280;20635;55.812;37.560;2023-02-28T09:16:36;98954.84;;;24.41;23.84
34370;BME280;20635;55.812;37.560;2023-02-28T09:19:02;98950.88;;;24.42;23.92
34370;BME280;20635;55.812;37.560;2023-02-28T09:23:53;98940.63;;;24.46;23.82
34370;BME280;20635;55.812;37.560;2023-02-28T09:26:24;98962.34;;;24.49;23.77
34370;BME280;20635;55.812;37.560;2023-02-28T09:28:53;98974.38;;;24.50;23.83
34370;BME280;20635;55.812;37.560;2023-02-28T09:31:25;98971.22;;;24.51;24.04
34370;BME280;20635;55.812;37.560;2023-02-28T09:33:53;98968.91;;;24.53;23.89
34370;BME280;20635;55.812;37.560;2023-02-28T09:36:20;98962.94;;;24.55;23.82
34370;BME280;20635;55.812;37.560;2023-02-28T09:38:47;98959.78;;;24.57;23.87
34370;BME280;20635;55.812;37.560;2023-02-28T09:41:20;98947.09;;;24.59;25.24
34370;BME280;20635;55.812;37.560;2023-02-28T09:43:52;98928.44;;;24.63;25.60
34370;BME280;20635;55.812;37.560;2023-02-28T09:46:40;98934.63;;;24.69;26.36
34370;BME280;20635;55.812;37.560;2023-02-28T09:49:20;98947.59;;;24.73;26.93
34370;BME280;20635;55.812;37.560;2023-02-28T09:52:12;98922.97;;;24.79;27.12
34370;BME280;20635;55.812;37.560;2023-02-28T09:54:39;98918.19;;;24.79;27.16
34370;BME280;20635;55.812;37.560;2023-02-28T09:57:11;98913.88;;;24.82;27.60
34370;BME280;20635;55.812;37.560;2023-02-28T10:02:45;98907.00;;;24.92;28.04
34370;BME280;20635;55.812;37.560;2023-02-28T10:05:19;98894.28;;;24.94;28.48
34370;BME280;20635;55.812;37.560;2023-02-28T10:10:43;98878.88;;;25.00;28.22
34370;BME280;20635;55.812;37.560;2023-02-28T10:13:32;98878.19;;;25.03;28.02
34370;BME280;20635;55.812;37.560;2023-02-28T10:16:05;98875.38;;;25.03;28.51
34370;BME280;20635;55.812;37.560;2023-02-28T10:18:47;98878.28;;;25.07;28.58
34370;BME280;20635;55.812;37.560;2023-02-28T10:21:20;98874.13;;;25.13;27.67
34370;BME280;20635;55.812;37.560;2023-02-28T10:23:48;98869.22;;;25.10;28.78
34370;BME280;20635;55.812;37.560;2023-02-28T10:26:16;98876.44;;;25.11;28.52
34370;BME280;20635;55.812;37.560;2023-02-28T10:28:43;98861.63;;;25.11;28.97
34370;BME280;20635;55.812;37.560;2023-02-28T10:31:17;98858.47;;;25.12;28.71
34370;BME280;20635;55.812;37.560;2023-02-28T10:33:43;98854.50;;;25.13;29.29
34370;BME280;20635;55.812;37.560;2023-02-28T10:36:14;98848.53;;;25.15;28.88
34370;BME280;20635;55.812;37.560;2023-02-28T10:38:40;98860.22;;;25.17;28.08
34370;BME280;20635;55.812;37.560;2023-02-28T10:41:10;98848.66;;;25.18;28.07
34370;BME280;20635;55.812;37.560;2023-02-28T10:43:38;98850.28;;;25.19;27.72
34370;BME280;20635;55.812;37.560;2023-02-28T10:48:37;98842.00;;;25.23;28.07
34370;BME280;20635;55.812;37.560;2023-02-28T10:51:05;98847.25;;;25.24;28.26
34370;BME280;20635;55.812;37.560;2023-02-28T10:53:34;98827.72;;;25.28;28.25
34370;BME280;20635;55.812;37.560;2023-02-28T11:03:48;98811.03;;;25.32;27.76
34370;BME280;20635;55.812;37.560;2023-02-28T11:06:21;98791.84;;;25.34;27.95
34370;BME280;20635;55.812;37.560;2023-02-28T11:08:53;98803.53;;;25.36;27.91
34370;BME280;20635;55.812;37.560;2023-02-28T11:11:21;98799.94;;;25.35;27.95
34370;BME280;20635;55.812;37.560;2023-02-28T11:13:52;98818.00;;;25.38;27.77
34370;BME280;20635;55.812;37.560;2023-02-28T11:16:19;98804.81;;;25.38;27.85
34370;BME280;20635;55.812;37.560;2023-02-28T11:18:53;98803.66;;;25.39;27.29
34370;BME280;20635;55.812;37.560;2023-02-28T11:21:39;98807.72;;;25.42;27.03
34370;BME280;20635;55.812;37.560;2023-02-28T11:26:43;98793.13;;;25.36;26.36
34370;BME280;20635;55.812;37.560;2023-02-28T11:29:22;98784.34;;;25.38;26.46
34370;BME280;20635;55.812;37.560;2023-02-28T11:34:31;98795.47;;;25.34;26.06
34370;BME280;20635;55.812;37.560;2023-02-28T11:36:59;98786.59;;;25.32;26.01
34370;BME280;20635;55.812;37.560;2023-02-28T11:39:26;98772.56;;;25.32;26.37
34370;BME280;20635;55.812;37.560;2023-02-28T11:42:07;98772.56;;;25.32;26.22
34370;BME280;20635;55.812;37.560;2023-02-28T11:47:41;98764.16;;;25.32;25.79
34370;BME280;20635;55.812;37.560;2023-02-28T11:50:30;98769.31;;;25.30;26.08
34370;BME280;20635;55.812;37.560;2023-02-28T11:53:22;98755.31;;;25.30;26.02
34370;BME280;20635;55.812;37.560;2023-02-28T11:56:18;98749.34;;;25.32;26.17
34370;BME280;20635;55.812;37.560;2023-02-28T12:06:54;98736.38;;;25.27;26.40
34370;BME280;20635;55.812;37.560;2023-02-28T12:18:26;98747.22;;;25.28;26.66
34370;BME280;20635;55.812;37.560;2023-02-28T12:21:26;98731.22;;;25.29;26.53
34370;BME280;20635;55.812;37.560;2023-02-28T12:26:37;98738.00;;;25.28;26.69
34370;BME280;20635;55.812;37.560;2023-02-28T12:34:39;98721.78;;;25.21;26.83
34370;BME280;20635;55.812;37.560;2023-02-28T12:37:10;98716.19;;;25.21;26.62
34370;BME280;20635;55.812;37.560;2023-02-28T12:39:53;98705.78;;;25.22;26.54
34370;BME280;20635;55.812;37.560;2023-02-28T12:42:28;98711.41;;;25.22;26.47
34370;BME280;20635;55.812;37.560;2023-02-28T12:45:01;98697.72;;;25.20;26.38
34370;BME280;20635;55.812;37.560;2023-02-28T12:47:29;98700.06;;;25.18;26.43
34370;BME280;20635;55.812;37.560;2023-02-28T12:50:03;98685.69;;;25.20;26.55
34370;BME280;20635;55.812;37.560;2023-02-28T13:01:05;98660.00;;;25.18;26.36
34370;BME280;20635;55.812;37.560;2023-02-28T13:06:44;98651.22;;;25.19;26.21
34370;BME280;20635;55.812;37.560;2023-02-28T13:09:16;98647.50;;;25.15;26.24
34370;BME280;20635;55.812;37.560;2023-02-28T13:11:47;98647.50;;;25.15;26.18
34370;BME280;20635;55.812;37.560;2023-02-28T13:14:36;98642.00;;;25.19;26.04
34370;BME280;20635;55.812;37.560;2023-02-28T13:19:39;98654.50;;;25.21;25.88
34370;BME280;20635;55.812;37.560;2023-02-28T13:22:20;98654.03;;;25.19;26.05
34370;BME280;20635;55.812;37.560;2023-02-28T13:25:01;98658.38;;;25.17;26.01
34370;BME280;20635;55.812;37.560;2023-02-28T13:27:39;98656.72;;;25.16;25.92
34370;BME280;20635;55.812;37.560;2023-02-28T13:33:29;98635.97;;;25.17;25.97
34370;BME280;20635;55.812;37.560;2023-02-28T13:46:25;98614.22;;;25.14;25.90
34370;BME280;20635;55.812;37.560;2023-02-28T13:48:51;98609.81;;;25.13;25.78
34370;BME280;20635;55.812;37.560;2023-02-28T13:57:01;98616.31;;;25.17;25.76
34370;BME280;20635;55.812;37.560;2023-02-28T14:02:32;98614.34;;;25.17;25.63
34370;BME280;20635;55.812;37.560;2023-02-28T14:05:21;98618.78;;;25.18;25.65
34370;BME280;20635;55.812;37.560;2023-02-28T14:07:57;98626.69;;;25.16;25.86
34370;BME280;20635;55.812;37.560;2023-02-28T14:10:27;98624.63;;;25.13;25.67
34370;BME280;20635;55.812;37.560;2023-02-28T14:18:06;98625.06;;;25.15;25.70
34370;BME280;20635;55.812;37.560;2023-02-28T14:20:40;98614.59;;;25.12;26.00
34370;BME280;20635;55.812;37.560;2023-02-28T14:26:44;98601.84;;;25.15;25.60
34370;BME280;20635;55.812;37.560;2023-02-28T14:31:46;98596.13;;;25.11;25.47
34370;BME280;20635;55.812;37.560;2023-02-28T14:34:24;98590.50;;;25.11;25.40
34370;BME280;20635;55.812;37.560;2023-02-28T14:36:53;98582.03;;;25.08;25.55
34370;BME280;20635;55.812;37.560;2023-02-28T14:39:22;98584.84;;;25.08;25.19
34370;BME280;20635;55.812;37.560;2023-02-28T14:41:49;98575.91;;;25.05;25.38
34370;BME280;20635;55.812;37.560;2023-02-28T14:44:18;98570.31;;;25.05;25.42
34370;BME280;20635;55.812;37.560;2023-02-28T14:46:47;98574.28;;;25.04;25.42
34370;BME280;20635;55.812;37.560;2023-02-28T14:49:36;98568.00;;;25.08;25.33
34370;BME280;20635;55.812;37.560;2023-02-28T14:52:14;98560.72;;;25.06;25.42
34370;BME280;20635;55.812;37.560;2023-02-28T14:54:41;98564.25;;;25.03;25.50
34370;BME280;20635;55.812;37.560;2023-02-28T14:57:31;98563.91;;;25.05;25.37
34370;BME280;20635;55.812;37.560;2023-02-28T15:00:14;98563.91;;;25.05;25.26
34370;BME280;20635;55.812;37.560;2023-02-28T15:02:41;98557.00;;;25.02;25.37
34370;BME280;20635;55.812;37.560;2023-02-28T15:05:26;98577.09;;;25.04;25.29
34370;BME280;20635;55.812;37.560;2023-02-28T15:08:15;98567.88;;;25.04;25.06
34370;BME280;20635;55.812;37.560;2023-02-28T15:10:50;98568.59;;;25.01;25.18
34370;BME280;20635;55.812;37.560;2023-02-28T15:13:17;98582.97;;;24.99;25.15
34370;BME280;20635;55.812;37.560;2023-02-28T15:18:26;98564.53;;;24.98;25.04
34370;BME280;20635;55.812;37.560;2023-02-28T15:20:53;98568.47;;;24.97;24.91